createdAt,value
2023-04-24T00:00:43.222Z,82.61
2023-04-24T00:01:42.304Z,82.71
2023-04-24T00:02:42.363Z,82.78
2023-04-24T00:03:42.410Z,82.92
2023-04-24T00:04:42.323Z,82.88
2023-04-24T00:05:42.237Z,82.71
2023-04-24T00:06:42.211Z,83.12
2023-04-24T00:07:42.202Z,84.04
2023-04-24T00:08:42.184Z,83.59
2023-04-24T00:09:42.411Z,82.71
2023-04-24T00:10:42.158Z,82.78
2023-04-24T00:11:42.158Z,82.61
2023-04-24T00:12:42.142Z,83.02
2023-04-24T00:13:42.136Z,82.27
2023-04-24T00:14:42.118Z,82.41
2023-04-24T00:15:42.113Z,83.02
2023-04-24T00:16:42.155Z,82.71
2023-04-24T00:17:42.137Z,82.71
2023-04-24T00:18:42.126Z,83.23
2023-04-24T00:19:42.220Z,83.12
2023-04-24T00:20:42.065Z,82.82
2023-04-24T00:21:42.078Z,82.61
2023-04-24T00:22:42.046Z,82.71
2023-04-24T00:23:42.035Z,82.92
2023-04-24T00:24:42.015Z,83.12
2023-04-24T00:25:42.007Z,82.82
2023-04-24T00:26:41.994Z,82.92
2023-04-24T00:27:41.992Z,83.02
2023-04-24T00:28:41.989Z,82.82
2023-04-24T00:29:42.084Z,83.02
2023-04-24T00:30:41.938Z,82.82
2023-04-24T00:31:41.958Z,82.71
2023-04-24T00:32:41.987Z,83.23
2023-04-24T00:33:41.955Z,83.12
2023-04-24T00:34:41.917Z,83.12
2023-04-24T00:35:41.886Z,83.43
2023-04-24T00:36:41.889Z,83.16
2023-04-24T00:37:41.883Z,83.23
2023-04-24T00:38:41.869Z,83.94
2023-04-24T00:39:42.065Z,83.78
2023-04-24T00:40:41.851Z,83.43
2023-04-24T00:41:41.830Z,83.53
2023-04-24T00:42:41.874Z,83.57
2023-04-24T00:43:41.803Z,83.78
2023-04-24T00:44:41.797Z,83.98
2023-04-24T00:45:41.823Z,83.53
2023-04-24T00:46:41.819Z,83.53
2023-04-24T00:47:41.777Z,83.63
2023-04-24T00:48:41.766Z,83.78
2023-04-24T00:49:42.008Z,83.53
2023-04-24T00:50:41.786Z,83.73
2023-04-24T00:51:41.732Z,83.23
2023-04-24T00:52:41.882Z,84.04
2023-04-24T00:53:41.685Z,83.33
2023-04-24T00:54:41.704Z,83.12
2023-04-24T00:55:41.664Z,83.23
2023-04-24T00:56:41.680Z,83.33
2023-04-24T00:57:41.637Z,83.94
2023-04-24T00:58:41.638Z,83.67
2023-04-24T00:59:41.904Z,83.84
2023-04-24T01:00:41.637Z,83.98
2023-04-24T01:01:42.233Z,83.73
2023-04-24T01:02:41.804Z,83.12
2023-04-24T01:03:41.715Z,83.78
2023-04-24T01:04:41.671Z,84.49
2023-04-24T01:05:41.576Z,85.10
2023-04-24T01:06:41.577Z,84.69
2023-04-24T01:07:41.527Z,85.00
2023-04-24T01:08:41.563Z,84.75
2023-04-24T01:09:41.855Z,84.96
2023-04-24T01:10:41.504Z,83.87
2023-04-24T01:11:41.486Z,84.59
2023-04-24T01:12:41.502Z,84.69
2023-04-24T01:13:41.466Z,84.80
2023-04-24T01:14:41.468Z,84.80
2023-04-24T01:15:41.525Z,84.69
2023-04-24T01:16:41.506Z,84.49
2023-04-24T01:17:41.465Z,84.66
2023-04-24T01:18:41.413Z,84.45
2023-04-24T01:19:42.003Z,84.80
2023-04-24T01:20:41.415Z,83.87
2023-04-24T01:21:41.397Z,84.59
2023-04-24T01:22:41.382Z,84.59
2023-04-24T01:23:41.361Z,84.90
2023-04-24T01:24:41.354Z,84.49
2023-04-24T01:25:41.353Z,84.49
2023-04-24T01:26:41.334Z,84.90
2023-04-24T01:27:41.377Z,84.69
2023-04-24T01:28:41.309Z,84.90
2023-04-24T01:29:41.508Z,85.30
2023-04-24T01:30:41.299Z,85.30
2023-04-24T01:31:41.437Z,85.41
2023-04-24T01:32:41.366Z,87.04
2023-04-24T01:33:41.271Z,86.63
2023-04-24T01:34:41.246Z,85.75
2023-04-24T01:35:41.254Z,85.35
2023-04-24T01:36:41.284Z,85.75
2023-04-24T01:37:41.214Z,85.35
2023-04-24T01:38:41.216Z,85.59
2023-04-24T01:39:41.309Z,83.65
2023-04-24T01:40:41.209Z,84.06
2023-04-24T01:41:41.181Z,82.93
2023-04-24T01:42:41.152Z,83.14
2023-04-24T01:43:41.166Z,82.42
2023-04-24T01:44:41.131Z,82.15
2023-04-24T01:45:41.151Z,80.73
2023-04-24T01:46:41.195Z,80.01
2023-04-24T01:47:41.149Z,79.60
2023-04-24T01:48:41.105Z,79.09
2023-04-24T01:49:41.459Z,78.27
2023-04-24T01:50:41.057Z,77.66
2023-04-24T01:51:41.056Z,76.84
2023-04-24T01:52:41.083Z,76.53
2023-04-24T01:53:41.032Z,77.25
2023-04-24T01:54:41.038Z,77.56
2023-04-24T01:55:41.016Z,77.76
2023-04-24T01:56:40.997Z,76.26
2023-04-24T01:57:41.026Z,76.78
2023-04-24T01:58:40.982Z,76.37
2023-04-24T01:59:41.092Z,77.70
2023-04-24T02:00:40.993Z,75.55
2023-04-24T02:01:40.963Z,76.78
2023-04-24T02:02:41.038Z,76.16
2023-04-24T02:03:41.052Z,76.47
2023-04-24T02:04:40.924Z,76.16
2023-04-24T02:05:40.926Z,76.16
2023-04-24T02:06:40.921Z,75.27
2023-04-24T02:07:40.936Z,76.40
2023-04-24T02:08:40.864Z,75.96
2023-04-24T02:09:40.989Z,76.37
2023-04-24T02:10:40.863Z,75.89
2023-04-24T02:11:40.866Z,75.48
2023-04-24T02:12:40.831Z,75.68
2023-04-24T02:13:40.838Z,76.50
2023-04-24T02:14:40.802Z,76.20
2023-04-24T02:15:40.807Z,76.81
2023-04-24T02:16:40.873Z,77.22
2023-04-24T02:17:40.869Z,75.89
2023-04-24T02:18:40.774Z,76.20
2023-04-24T02:19:41.009Z,76.81
2023-04-24T02:20:40.738Z,76.71
2023-04-24T02:21:40.740Z,77.01
2023-04-24T02:22:40.713Z,77.53
2023-04-24T02:23:40.718Z,77.32
2023-04-24T02:24:40.710Z,77.83
2023-04-24T02:25:40.675Z,77.83
2023-04-24T02:26:40.682Z,77.73
2023-04-24T02:27:40.659Z,77.63
2023-04-24T02:28:40.666Z,77.94
2023-04-24T02:29:41.038Z,77.22
2023-04-24T02:30:40.627Z,76.91
2023-04-24T02:31:40.654Z,76.71
2023-04-24T02:32:40.603Z,77.83
2023-04-24T02:33:40.637Z,77.83
2023-04-24T02:34:40.616Z,77.73
2023-04-24T02:35:40.579Z,77.63
2023-04-24T02:36:40.559Z,77.53
2023-04-24T02:37:40.557Z,77.73
2023-04-24T02:38:40.537Z,77.83
2023-04-24T02:39:40.786Z,77.76
2023-04-24T02:40:40.531Z,77.87
2023-04-24T02:41:40.503Z,77.83
2023-04-24T02:42:40.514Z,77.56
2023-04-24T02:43:40.494Z,77.67
2023-04-24T02:44:40.467Z,77.67
2023-04-24T02:45:40.521Z,77.80
2023-04-24T02:46:40.463Z,77.80
2023-04-24T02:47:40.460Z,77.97
2023-04-24T02:48:40.427Z,78.17
2023-04-24T02:49:40.586Z,77.97
2023-04-24T02:50:40.404Z,77.87
2023-04-24T02:51:40.390Z,77.80
2023-04-24T02:52:40.407Z,77.70
2023-04-24T02:53:40.367Z,77.80
2023-04-24T02:54:40.357Z,77.91
2023-04-24T02:55:40.348Z,78.05
2023-04-24T02:56:40.360Z,77.94
2023-04-24T02:57:40.374Z,78.05
2023-04-24T02:58:40.331Z,78.25
2023-04-24T02:59:40.516Z,78.35
2023-04-24T03:00:40.286Z,78.70
2023-04-24T03:01:40.607Z,78.28
2023-04-24T03:02:40.384Z,78.28
2023-04-24T03:03:40.500Z,78.80
2023-04-24T03:04:40.353Z,78.90
2023-04-24T03:05:40.252Z,79.00
2023-04-24T03:06:40.220Z,79.52
2023-04-24T03:07:40.217Z,79.11
2023-04-24T03:08:40.202Z,79.55
2023-04-24T03:09:40.234Z,79.31
2023-04-24T03:10:40.205Z,79.52
2023-04-24T03:11:40.174Z,78.90
2023-04-24T03:12:40.215Z,79.00
2023-04-24T03:13:40.172Z,79.35
2023-04-24T03:14:40.161Z,79.96
2023-04-24T03:15:40.263Z,80.07
2023-04-24T03:16:40.181Z,80.07
2023-04-24T03:17:40.115Z,78.94
2023-04-24T03:18:40.099Z,80.17
2023-04-24T03:19:40.198Z,79.75
2023-04-24T03:20:40.083Z,80.21
2023-04-24T03:21:40.065Z,80.41
2023-04-24T03:22:40.084Z,80.31
2023-04-24T03:23:40.048Z,80.31
2023-04-24T03:24:40.044Z,80.27
2023-04-24T03:25:40.036Z,81.02
2023-04-24T03:26:40.059Z,81.02
2023-04-24T03:27:39.994Z,80.41
2023-04-24T03:28:40.022Z,80.41
2023-04-24T03:29:40.093Z,80.72
2023-04-24T03:30:39.977Z,80.41
2023-04-24T03:31:39.967Z,80.21
2023-04-24T03:32:40.003Z,80.51
2023-04-24T03:33:39.957Z,80.62
2023-04-24T03:34:39.940Z,80.41
2023-04-24T03:35:39.910Z,80.72
2023-04-24T03:36:39.918Z,81.02
2023-04-24T03:37:39.908Z,80.47
2023-04-24T03:38:39.902Z,80.62
2023-04-24T03:39:39.898Z,80.72
2023-04-24T03:40:39.943Z,80.82
2023-04-24T03:41:39.846Z,80.31
2023-04-24T03:42:39.831Z,80.82
2023-04-24T03:43:39.825Z,80.21
2023-04-24T03:44:39.814Z,80.86
2023-04-24T03:45:39.829Z,80.10
2023-04-24T03:46:39.848Z,80.41
2023-04-24T03:47:39.848Z,80.55
2023-04-24T03:48:49.722Z,80.86
2023-04-24T03:49:39.783Z,80.65
2023-04-24T03:50:39.753Z,80.55
2023-04-24T03:51:39.769Z,81.27
2023-04-24T03:52:39.763Z,81.48
2023-04-24T03:53:39.716Z,81.23
2023-04-24T03:54:39.731Z,81.16
2023-04-24T03:55:39.708Z,81.37
2023-04-24T03:56:39.742Z,81.57
2023-04-24T03:57:39.690Z,82.09
2023-04-24T03:58:39.656Z,81.06
2023-04-24T03:59:39.649Z,81.06
2023-04-24T04:00:39.638Z,81.48
2023-04-24T04:01:40.345Z,81.71
2023-04-24T04:02:39.808Z,81.48
2023-04-24T04:03:39.862Z,81.37
2023-04-24T04:04:39.787Z,81.71
2023-04-24T04:05:39.584Z,81.57
2023-04-24T04:06:39.584Z,82.19
2023-04-24T04:07:39.597Z,81.37
2023-04-24T04:08:39.548Z,81.37
2023-04-24T04:09:39.554Z,81.51
2023-04-24T04:10:39.536Z,81.88
2023-04-24T04:11:39.515Z,81.37
2023-04-24T04:12:39.503Z,81.71
2023-04-24T04:13:39.526Z,81.41
2023-04-24T04:14:39.512Z,81.10
2023-04-24T04:15:39.497Z,81.88
2023-04-24T04:16:39.488Z,82.03
2023-04-24T04:17:39.478Z,81.82
2023-04-24T04:18:39.462Z,81.88
2023-04-24T04:19:39.445Z,82.60
2023-04-24T04:20:39.455Z,82.54
2023-04-24T04:21:39.428Z,82.40
2023-04-24T04:22:39.612Z,82.19
2023-04-24T04:23:39.435Z,81.88
2023-04-24T04:24:39.384Z,82.40
2023-04-24T04:25:39.369Z,81.16
2023-04-24T04:26:39.376Z,81.99
2023-04-24T04:27:39.380Z,82.50
2023-04-24T04:28:39.332Z,82.09
2023-04-24T04:29:39.316Z,81.99
2023-04-24T04:30:39.339Z,81.27
2023-04-24T04:31:39.363Z,81.27
2023-04-24T04:32:39.399Z,81.92
2023-04-24T04:33:39.302Z,82.64
2023-04-24T04:34:39.341Z,82.60
2023-04-24T04:35:39.260Z,82.64
2023-04-24T04:36:39.239Z,82.23
2023-04-24T04:37:39.229Z,82.33
2023-04-24T04:38:39.914Z,82.03
2023-04-24T04:39:39.232Z,82.33
2023-04-24T04:40:39.214Z,82.23
2023-04-24T04:41:39.197Z,82.43
2023-04-24T04:42:39.179Z,82.09
2023-04-24T04:43:39.172Z,82.29
2023-04-24T04:44:39.156Z,82.23
2023-04-24T04:45:39.192Z,82.60
2023-04-24T04:46:39.152Z,82.40
2023-04-24T04:47:39.157Z,82.40
2023-04-24T04:48:39.155Z,82.91
2023-04-24T04:49:39.111Z,82.50
2023-04-24T04:50:39.162Z,82.50
2023-04-24T04:51:40.736Z,82.40
2023-04-24T04:52:39.073Z,82.40
2023-04-24T04:53:39.076Z,82.50
2023-04-24T04:54:39.091Z,82.19
2023-04-24T04:55:39.102Z,82.29
2023-04-24T04:56:39.022Z,82.19
2023-04-24T04:57:39.035Z,82.54
2023-04-24T04:58:38.992Z,82.81
2023-04-24T04:59:38.993Z,82.75
2023-04-24T05:00:39.120Z,82.75
2023-04-24T05:01:39.084Z,83.22
2023-04-24T05:02:39.056Z,82.75
2023-04-24T05:03:39.105Z,82.81
2023-04-24T05:04:39.199Z,82.23
2023-04-24T05:05:38.955Z,82.29
2023-04-24T05:06:38.957Z,82.70
2023-04-24T05:07:38.906Z,82.70
2023-04-24T05:08:38.893Z,82.91
2023-04-24T05:09:38.877Z,83.53
2023-04-24T05:10:38.877Z,82.50
2023-04-24T05:11:38.883Z,82.91
2023-04-24T05:12:38.889Z,83.22
2023-04-24T05:13:40.642Z,82.70
2023-04-24T05:14:38.821Z,82.91
2023-04-24T05:15:38.813Z,82.29
2023-04-24T05:16:38.807Z,83.01
2023-04-24T05:17:38.829Z,82.77
2023-04-24T05:18:38.811Z,82.50
2023-04-24T05:19:38.788Z,82.26
2023-04-24T05:20:38.771Z,82.46
2023-04-24T05:21:38.749Z,82.87
2023-04-24T05:22:38.773Z,82.26
2023-04-24T05:23:38.742Z,82.26
2023-04-24T05:24:38.755Z,82.15
2023-04-24T05:25:38.701Z,82.42
2023-04-24T05:26:38.691Z,82.15
2023-04-24T05:27:38.689Z,82.53
2023-04-24T05:28:38.670Z,82.22
2023-04-24T05:29:38.683Z,82.53
2023-04-24T05:30:38.679Z,82.01
2023-04-24T05:31:38.672Z,81.60
2023-04-24T05:32:38.704Z,81.60
2023-04-24T05:33:38.657Z,81.29
2023-04-24T05:34:38.642Z,81.29
2023-04-24T05:35:38.598Z,81.91
2023-04-24T05:36:38.596Z,82.22
2023-04-24T05:37:38.638Z,82.42
2023-04-24T05:38:38.592Z,81.40
2023-04-24T05:39:38.586Z,81.29
2023-04-24T05:40:38.572Z,81.26
2023-04-24T05:41:38.545Z,81.40
2023-04-24T05:42:38.538Z,81.81
2023-04-24T05:43:38.555Z,81.71
2023-04-24T05:45:48.238Z,81.29
2023-04-24T05:46:48.384Z,81.40
2023-04-24T05:47:48.260Z,81.36
2023-04-24T05:48:48.209Z,81.36
2023-04-24T05:49:48.210Z,81.71
2023-04-24T05:50:48.227Z,81.26
2023-04-24T05:51:48.162Z,81.46
2023-04-24T05:52:48.152Z,81.36
2023-04-24T05:53:48.191Z,81.36
2023-04-24T05:54:48.169Z,81.20
2023-04-24T05:55:48.127Z,81.57
2023-04-24T05:56:48.135Z,81.67
2023-04-24T05:57:48.102Z,81.57
2023-04-24T05:58:48.094Z,81.60
2023-04-24T05:59:48.191Z,81.26
2023-04-24T06:00:48.082Z,81.67
2023-04-24T06:01:48.085Z,81.36
2023-04-24T06:02:48.195Z,81.15
2023-04-24T06:03:48.196Z,81.46
2023-04-24T06:04:48.255Z,81.26
2023-04-24T06:05:48.077Z,81.57
2023-04-24T06:06:48.004Z,81.46
2023-04-24T06:07:47.995Z,81.57
2023-04-24T06:08:47.983Z,81.57
2023-04-24T06:09:47.980Z,81.15
2023-04-24T06:10:47.994Z,80.95
2023-04-24T06:11:47.957Z,80.95
2023-04-24T06:12:47.955Z,81.15
2023-04-24T06:13:47.940Z,81.57
2023-04-24T06:14:47.947Z,81.26
2023-04-24T06:15:47.908Z,82.08
2023-04-24T06:16:50.214Z,81.57
2023-04-24T06:17:47.904Z,81.77
2023-04-24T06:18:47.893Z,82.08
2023-04-24T06:19:47.853Z,82.49
2023-04-24T06:20:47.848Z,82.08
2023-04-24T06:21:47.840Z,81.36
2023-04-24T06:22:47.826Z,81.52
2023-04-24T06:23:47.876Z,81.73
2023-04-24T06:24:47.804Z,81.77
2023-04-24T06:25:47.838Z,81.73
2023-04-24T06:26:47.901Z,81.63
2023-04-24T06:27:47.808Z,81.52
2023-04-24T06:28:47.778Z,81.22
2023-04-24T06:29:47.797Z,82.04
2023-04-24T06:30:47.785Z,81.12
2023-04-24T06:31:47.776Z,81.63
2023-04-24T06:32:47.761Z,82.24
2023-04-24T06:33:47.708Z,81.63
2023-04-24T06:34:47.709Z,81.43
2023-04-24T06:35:47.689Z,82.04
2023-04-24T06:36:47.697Z,82.51
2023-04-24T06:37:47.694Z,81.90
2023-04-24T06:38:47.647Z,81.18
2023-04-24T06:39:47.651Z,82.21
2023-04-24T06:40:47.653Z,82.21
2023-04-24T06:41:47.650Z,82.00
2023-04-24T06:42:47.635Z,81.86
2023-04-24T06:43:47.615Z,82.21
2023-04-24T06:44:47.693Z,81.70
2023-04-24T06:45:47.616Z,81.79
2023-04-24T06:46:47.591Z,82.31
2023-04-24T06:47:47.637Z,82.21
2023-04-24T06:48:47.535Z,82.21
2023-04-24T06:49:47.547Z,81.59
2023-04-24T06:50:47.516Z,81.59
2023-04-24T06:51:47.512Z,81.70
2023-04-24T06:52:47.750Z,81.29
2023-04-24T06:53:49.164Z,81.49
2023-04-24T06:54:47.480Z,81.79
2023-04-24T06:55:47.464Z,81.70
2023-04-24T06:56:47.473Z,82.21
2023-04-24T06:57:47.465Z,82.31
2023-04-24T06:58:47.488Z,81.90
2023-04-24T06:59:47.454Z,81.08
2023-04-24T07:00:47.468Z,82.41
2023-04-24T07:01:47.502Z,82.51
2023-04-24T07:02:47.496Z,83.44
2023-04-24T07:03:47.546Z,83.74
2023-04-24T07:04:47.385Z,84.15
2023-04-24T07:05:47.375Z,83.84
2023-04-24T07:06:47.367Z,83.78
2023-04-24T07:07:47.337Z,85.42
2023-04-24T07:08:47.349Z,85.72
2023-04-24T07:09:47.357Z,87.37
2023-04-24T07:10:47.329Z,87.20
2023-04-24T07:11:47.329Z,87.06
2023-04-24T07:12:47.276Z,87.41
2023-04-24T07:13:47.291Z,87.71
2023-04-24T07:14:47.258Z,88.29
2023-04-24T07:15:47.282Z,88.33
2023-04-24T07:16:47.251Z,89.00
2023-04-24T07:17:47.278Z,89.45
2023-04-24T07:18:47.210Z,88.84
2023-04-24T07:19:47.216Z,90.13
2023-04-24T07:20:47.190Z,90.07
2023-04-24T07:21:47.192Z,89.36
2023-04-24T07:22:47.186Z,90.07
2023-04-24T07:23:47.201Z,89.97
2023-04-24T07:24:47.162Z,89.66
2023-04-24T07:25:47.135Z,89.45
2023-04-24T07:26:47.208Z,90.11
2023-04-24T07:27:47.124Z,89.97
2023-04-24T07:28:47.127Z,89.25
2023-04-24T07:29:47.512Z,89.97
2023-04-24T07:30:47.090Z,89.25
2023-04-24T07:31:47.138Z,88.94
2023-04-24T07:32:47.090Z,88.94
2023-04-24T07:33:47.091Z,89.09
2023-04-24T07:34:47.095Z,89.56
2023-04-24T07:35:47.067Z,88.74
2023-04-24T07:36:47.041Z,88.68
2023-04-24T07:37:47.053Z,88.43
2023-04-24T07:38:47.036Z,88.94
2023-04-24T07:39:47.004Z,89.45
2023-04-24T07:40:48.718Z,89.36
2023-04-24T07:41:46.985Z,88.12
2023-04-24T07:42:46.953Z,89.15
2023-04-24T07:43:46.978Z,88.64
2023-04-24T07:44:46.931Z,88.33
2023-04-24T07:45:47.000Z,89.29
2023-04-24T07:46:46.969Z,88.64
2023-04-24T07:47:46.930Z,89.66
2023-04-24T07:48:46.900Z,89.45
2023-04-24T07:49:46.909Z,89.25
2023-04-24T07:50:46.861Z,89.11
2023-04-24T07:51:46.874Z,88.64
2023-04-24T07:52:46.861Z,89.36
2023-04-24T07:53:46.834Z,88.33
2023-04-24T07:54:46.822Z,88.37
2023-04-24T07:55:46.834Z,89.19
2023-04-24T07:56:46.826Z,89.36
2023-04-24T07:57:46.826Z,90.07
2023-04-24T07:58:46.773Z,89.56
2023-04-24T07:59:46.789Z,89.50
2023-04-24T08:00:46.753Z,89.97
2023-04-24T08:01:46.765Z,90.07
2023-04-24T08:02:46.890Z,90.28
2023-04-24T08:03:47.050Z,90.07
2023-04-24T08:04:47.003Z,89.76
2023-04-24T08:05:46.762Z,90.23
2023-04-24T08:06:46.702Z,90.03
2023-04-24T08:07:46.681Z,90.64
2023-04-24T08:08:46.669Z,90.54
2023-04-24T08:09:46.707Z,90.64
2023-04-24T08:10:46.667Z,90.64
2023-04-24T08:11:46.657Z,90.64
2023-04-24T08:12:46.683Z,91.20
2023-04-24T08:13:46.619Z,92.32
2023-04-24T08:14:46.605Z,92.12
2023-04-24T08:15:46.658Z,92.36
2023-04-24T08:16:46.631Z,92.36
2023-04-24T08:17:46.664Z,92.36
2023-04-24T08:18:46.561Z,92.36
2023-04-24T08:19:46.552Z,92.68
2023-04-24T08:20:46.552Z,93.33
2023-04-24T08:21:46.529Z,93.64
2023-04-24T08:22:46.626Z,93.95
2023-04-24T08:23:46.500Z,94.10
2023-04-24T08:24:46.493Z,93.33
2023-04-24T08:25:46.514Z,94.15
2023-04-24T08:26:46.512Z,93.74
2023-04-24T08:27:46.462Z,93.95
2023-04-24T08:28:46.453Z,94.67
2023-04-24T08:29:46.498Z,94.61
2023-04-24T08:30:46.449Z,94.20
2023-04-24T08:31:46.449Z,94.51
2023-04-24T08:32:46.437Z,95.12
2023-04-24T08:33:46.423Z,95.43
2023-04-24T08:34:48.313Z,95.84
2023-04-24T08:35:46.413Z,95.74
2023-04-24T08:36:47.515Z,95.59
2023-04-24T08:37:46.373Z,95.28
2023-04-24T08:38:46.342Z,96.25
2023-04-24T08:39:46.335Z,96.45
2023-04-24T08:40:46.322Z,96.25
2023-04-24T08:41:46.482Z,95.84
2023-04-24T08:42:46.296Z,95.94
2023-04-24T08:43:46.292Z,94.81
2023-04-24T08:44:46.273Z,94.61
2023-04-24T08:45:46.316Z,95.43
2023-04-24T08:46:46.467Z,95.23
2023-04-24T08:47:46.574Z,96.19
2023-04-24T08:48:46.237Z,95.57
2023-04-24T08:49:46.238Z,96.40
2023-04-24T08:50:46.216Z,95.37
2023-04-24T08:51:46.220Z,94.96
2023-04-24T08:52:46.192Z,94.96
2023-04-24T08:53:46.271Z,95.53
2023-04-24T08:54:46.189Z,95.32
2023-04-24T08:55:46.155Z,95.74
2023-04-24T08:56:46.155Z,96.15
2023-04-24T08:57:46.142Z,95.89
2023-04-24T08:58:46.159Z,95.74
2023-04-24T08:59:46.170Z,95.32
2023-04-24T09:00:46.105Z,95.12
2023-04-24T09:01:46.216Z,94.96
2023-04-24T09:02:46.203Z,95.78
2023-04-24T09:03:46.271Z,95.74
2023-04-24T09:04:46.180Z,95.57
2023-04-24T09:05:46.103Z,95.57
2023-04-24T09:06:46.066Z,95.47
2023-04-24T09:07:46.048Z,94.18
2023-04-24T09:08:46.030Z,95.62
2023-04-24T09:09:46.057Z,96.03
2023-04-24T09:10:45.998Z,96.19
2023-04-24T09:11:46.050Z,96.91
2023-04-24T09:12:46.013Z,97.32
2023-04-24T09:13:45.958Z,97.42
2023-04-24T09:14:46.042Z,96.60
2023-04-24T09:15:45.961Z,97.02
2023-04-24T09:16:45.969Z,96.04
2023-04-24T09:17:45.979Z,96.60
2023-04-24T09:18:45.913Z,96.45
2023-04-24T09:19:45.897Z,96.35
2023-04-24T09:20:45.902Z,96.35
2023-04-24T09:21:45.888Z,95.84
2023-04-24T09:22:45.883Z,95.74
2023-04-24T09:23:45.916Z,95.74
2023-04-24T09:24:45.842Z,96.04
2023-04-24T09:25:45.849Z,95.39
2023-04-24T09:26:45.815Z,95.59
2023-04-24T09:27:45.877Z,95.59
2023-04-24T09:28:45.798Z,95.59
2023-04-24T09:29:46.116Z,95.90
2023-04-24T09:30:45.779Z,95.90
2023-04-24T09:31:45.814Z,95.39
2023-04-24T09:32:45.797Z,95.28
2023-04-24T09:33:45.750Z,95.94
2023-04-24T09:34:45.731Z,96.00
2023-04-24T09:35:45.741Z,95.86
2023-04-24T09:36:45.709Z,94.98
2023-04-24T09:37:45.764Z,95.07
2023-04-24T09:38:45.708Z,95.49
2023-04-24T09:39:45.755Z,96.10
2023-04-24T09:40:45.669Z,96.10
2023-04-24T09:41:45.736Z,95.84
2023-04-24T09:42:45.641Z,95.90
2023-04-24T09:43:45.669Z,95.79
2023-04-24T09:44:45.621Z,95.59
2023-04-24T09:45:45.642Z,96.31
2023-04-24T09:46:45.740Z,95.49
2023-04-24T09:47:45.653Z,94.40
2023-04-24T09:48:45.628Z,94.92
2023-04-24T09:49:45.836Z,95.43
2023-04-24T09:50:45.563Z,96.50
2023-04-24T09:51:45.559Z,96.87
2023-04-24T09:52:45.549Z,97.42
2023-04-24T09:53:45.548Z,97.28
2023-04-24T09:54:45.515Z,97.79
2023-04-24T09:55:45.532Z,97.28
2023-04-24T09:56:45.487Z,97.48
2023-04-24T09:57:45.508Z,97.58
2023-04-24T09:58:45.497Z,97.38
2023-04-24T09:59:45.783Z,96.56
2023-04-24T10:00:53.040Z,96.56
2023-04-24T10:01:45.661Z,96.81
2023-04-24T10:02:45.531Z,96.66
2023-04-24T10:03:45.528Z,97.07
2023-04-24T10:04:45.495Z,97.28
2023-04-24T10:05:45.511Z,97.38
2023-04-24T10:06:45.404Z,97.48
2023-04-24T10:07:46.229Z,97.79
2023-04-24T10:08:45.473Z,97.48
2023-04-24T10:09:45.737Z,98.10
2023-04-24T10:10:45.368Z,98.10
2023-04-24T10:11:45.453Z,97.63
2023-04-24T10:12:45.376Z,97.63
2023-04-24T10:13:45.357Z,97.83
2023-04-24T10:14:46.362Z,98.14
2023-04-24T10:15:45.345Z,98.20
2023-04-24T10:16:45.376Z,97.99
2023-04-24T10:17:45.402Z,97.63
2023-04-24T10:18:45.274Z,97.53
2023-04-24T10:19:45.513Z,97.63
2023-04-24T10:20:45.264Z,97.22
2023-04-24T10:21:45.240Z,97.37
2023-04-24T10:22:45.259Z,97.47
2023-04-24T10:23:45.218Z,97.47
2023-04-24T10:24:45.244Z,97.57
2023-04-24T10:25:45.231Z,97.62
2023-04-24T10:26:45.283Z,97.78
2023-04-24T10:27:45.183Z,97.72
2023-04-24T10:28:45.152Z,97.88
2023-04-24T10:29:45.169Z,98.08
2023-04-24T10:30:45.154Z,98.19
2023-04-24T10:31:45.229Z,97.88
2023-04-24T10:32:45.149Z,97.67
2023-04-24T10:33:45.521Z,97.72
2023-04-24T10:34:45.162Z,98.29
2023-04-24T10:35:45.096Z,97.99
2023-04-24T10:36:45.194Z,98.29
2023-04-24T10:37:45.074Z,98.29
2023-04-24T10:38:45.060Z,97.47
2023-04-24T10:39:45.107Z,97.52
2023-04-24T10:40:45.075Z,97.88
2023-04-24T10:41:45.028Z,97.82
2023-04-24T10:42:45.085Z,97.41
2023-04-24T10:43:45.035Z,97.82
2023-04-24T10:44:45.005Z,97.82
2023-04-24T10:45:44.978Z,97.62
2023-04-24T10:46:45.088Z,98.33
2023-04-24T10:47:45.035Z,97.62
2023-04-24T10:48:45.025Z,97.20
2023-04-24T10:49:44.984Z,97.72
2023-04-24T10:50:44.956Z,97.41
2023-04-24T10:51:44.948Z,97.92
2023-04-24T10:52:44.908Z,97.72
2023-04-24T10:53:44.885Z,98.13
2023-04-24T10:54:44.924Z,98.54
2023-04-24T10:55:44.887Z,98.60
2023-04-24T10:56:44.992Z,99.01
2023-04-24T10:57:45.274Z,98.91
2023-04-24T10:58:44.922Z,98.55
2023-04-24T10:59:44.857Z,98.70
2023-04-24T11:00:44.989Z,98.60
2023-04-24T11:01:44.807Z,98.39
2023-04-24T11:02:44.915Z,98.19
2023-04-24T11:03:44.884Z,98.50
2023-04-24T11:04:44.908Z,98.70
2023-04-24T11:05:44.765Z,98.55
2023-04-24T11:06:44.765Z,98.35
2023-04-24T11:07:44.730Z,98.25
2023-04-24T11:08:44.745Z,98.66
2023-04-24T11:09:44.733Z,97.99
2023-04-24T11:10:44.726Z,98.20
2023-04-24T11:11:44.709Z,97.64
2023-04-24T11:12:44.699Z,97.44
2023-04-24T11:13:44.665Z,97.45
2023-04-24T11:14:44.680Z,98.02
2023-04-24T11:15:44.749Z,97.66
2023-04-24T11:16:44.657Z,97.41
2023-04-24T11:17:44.680Z,97.27
2023-04-24T11:18:44.649Z,97.69
2023-04-24T11:19:44.624Z,97.28
2023-04-24T11:20:44.603Z,96.97
2023-04-24T11:21:44.595Z,95.80
2023-04-24T11:22:44.605Z,93.86
2023-04-24T11:23:44.561Z,94.17
2023-04-24T11:24:44.570Z,93.35
2023-04-24T11:25:44.570Z,93.09
2023-04-24T11:26:44.537Z,93.09
2023-04-24T11:27:44.536Z,93.24
2023-04-24T11:28:44.504Z,92.21
2023-04-24T11:29:44.482Z,91.29
2023-04-24T11:30:44.527Z,92.77
2023-04-24T11:31:44.539Z,93.07
2023-04-24T11:32:44.505Z,93.13
2023-04-24T11:33:44.486Z,93.44
2023-04-24T11:34:44.444Z,93.85
2023-04-24T11:35:44.453Z,93.44
2023-04-24T11:36:44.471Z,93.85
2023-04-24T11:37:44.643Z,93.74
2023-04-24T11:38:44.406Z,93.13
2023-04-24T11:39:44.428Z,93.03
2023-04-24T11:40:44.461Z,92.83
2023-04-24T11:41:44.492Z,94.26
2023-04-24T11:42:44.339Z,93.74
2023-04-24T11:43:44.361Z,95.28
2023-04-24T11:44:44.409Z,93.79
2023-04-24T11:45:44.464Z,92.56
2023-04-24T11:46:44.587Z,92.52
2023-04-24T11:47:44.407Z,92.05
2023-04-24T11:48:45.496Z,92.42
2023-04-24T11:49:44.469Z,92.21
2023-04-24T11:50:44.267Z,88.20
2023-04-24T11:51:53.161Z,90.52
2023-04-24T11:52:45.436Z,90.82
2023-04-24T11:53:44.712Z,90.41
2023-04-24T11:54:45.150Z,91.95
2023-04-24T11:55:44.337Z,92.21
2023-04-24T11:56:44.491Z,89.29
2023-04-24T11:57:44.221Z,89.15
2023-04-24T11:58:44.184Z,88.84
2023-04-24T11:59:44.348Z,88.57
2023-04-24T12:00:44.155Z,89.09
2023-04-24T12:01:44.153Z,88.33
2023-04-24T12:02:44.214Z,86.22
2023-04-24T12:03:44.236Z,87.90
2023-04-24T12:04:44.357Z,88.41
2023-04-24T12:05:44.126Z,87.29
2023-04-24T12:06:44.090Z,87.49
2023-04-24T12:07:44.113Z,87.90
2023-04-24T12:08:44.089Z,88.04
2023-04-24T12:09:44.073Z,89.78
2023-04-24T12:10:44.023Z,90.05
2023-04-24T12:11:44.023Z,88.82
2023-04-24T12:12:44.022Z,88.82
2023-04-24T12:13:44.000Z,89.23
2023-04-24T12:14:44.025Z,90.25
2023-04-24T12:15:43.998Z,89.74
2023-04-24T12:16:43.961Z,89.94
2023-04-24T12:17:44.069Z,91.11
2023-04-24T12:18:43.936Z,91.99
2023-04-24T12:19:44.004Z,91.58
2023-04-24T12:20:43.934Z,92.91
2023-04-24T12:21:43.896Z,91.48
2023-04-24T12:22:43.897Z,90.50
2023-04-24T12:23:43.873Z,90.25
2023-04-24T12:24:43.882Z,90.70
2023-04-24T12:25:43.881Z,91.69
2023-04-24T12:26:43.858Z,91.78
2023-04-24T12:27:43.838Z,92.05
2023-04-24T12:28:43.827Z,92.25
2023-04-24T12:29:43.852Z,92.19
2023-04-24T12:30:43.847Z,91.58
2023-04-24T12:31:43.860Z,91.27
2023-04-24T12:32:43.811Z,91.95
2023-04-24T12:33:43.792Z,92.19
2023-04-24T12:34:43.776Z,92.25
2023-04-24T12:35:43.772Z,92.36
2023-04-24T12:36:43.764Z,93.18
2023-04-24T12:37:45.738Z,92.93
2023-04-24T12:38:43.718Z,93.19
2023-04-24T12:39:43.768Z,92.27
2023-04-24T12:40:43.738Z,91.46
2023-04-24T12:41:43.720Z,91.92
2023-04-24T12:42:43.680Z,91.72
2023-04-24T12:43:43.668Z,90.75
2023-04-24T12:44:43.713Z,90.25
2023-04-24T12:45:43.713Z,90.31
2023-04-24T12:46:43.666Z,88.41
2023-04-24T12:47:43.621Z,89.69
2023-04-24T12:48:43.904Z,91.12
2023-04-24T12:49:43.631Z,91.18
2023-04-24T12:50:45.681Z,89.59
2023-04-24T12:51:43.588Z,89.55
2023-04-24T12:52:43.688Z,89.65
2023-04-24T12:53:43.767Z,87.10